sensor_id;sensor_type;location;lat;lon;timestamp;P1;durP1;ratioP1;P2;durP2;ratioP2
57225;SDS011;43082;43.568;22.256;2023-03-01T00:00:36;2.17;;;0.80;;
57225;SDS011;43082;43.568;22.256;2023-03-01T00:03:02;3.63;;;1.40;;
57225;SDS011;43082;43.568;22.256;2023-03-01T00:05:27;2.85;;;1.27;;
57225;SDS011;43082;43.568;22.256;2023-03-01T00:07:53;3.47;;;1.33;;
57225;SDS011;43082;43.568;22.256;2023-03-01T00:10:18;3.22;;;1.27;;
57225;SDS011;43082;43.568;22.256;2023-03-01T00:12:44;3.30;;;1.38;;
57225;SDS011;43082;43.568;22.256;2023-03-01T00:15:09;6.20;;;2.53;;
57225;SDS011;43082;43.568;22.256;2023-03-01T00:17:35;4.20;;;1.50;;
57225;SDS011;43082;43.568;22.256;2023-03-01T00:20:00;4.03;;;1.33;;
57225;SDS011;43082;43.568;22.256;2023-03-01T00:22:26;4.10;;;1.38;;
57225;SDS011;43082;43.568;22.256;2023-03-01T00:24:53;3.30;;;1.10;;
57225;SDS011;43082;43.568;22.256;2023-03-01T00:27:18;3.03;;;1.08;;
57225;SDS011;43082;43.568;22.256;2023-03-01T00:29:43;2.70;;;1.10;;
57225;SDS011;43082;43.568;22.256;2023-03-01T00:32:09;3.92;;;1.30;;
57225;SDS011;43082;43.568;22.256;2023-03-01T00:34:34;2.92;;;1.02;;
57225;SDS011;43082;43.568;22.256;2023-03-01T00:37:00;3.90;;;1.10;;
57225;SDS011;43082;43.568;22.256;2023-03-01T00:39:30;3.70;;;1.20;;
57225;SDS011;43082;43.568;22.256;2023-03-01T00:41:57;5.45;;;2.10;;
57225;SDS011;43082;43.568;22.256;2023-03-01T00:44:22;7.25;;;2.00;;
57225;SDS011;43082;43.568;22.256;2023-03-01T00:46:48;5.05;;;1.75;;
57225;SDS011;43082;43.568;22.256;2023-03-01T00:49:13;5.88;;;2.88;;
57225;SDS011;43082;43.568;22.256;2023-03-01T00:51:39;3.17;;;1.10;;
57225;SDS011;43082;43.568;22.256;2023-03-01T00:54:07;3.50;;;1.30;;
57225;SDS011;43082;43.568;22.256;2023-03-01T00:56:33;4.80;;;1.48;;
57225;SDS011;43082;43.568;22.256;2023-03-01T00:58:59;3.15;;;1.25;;
57225;SDS011;43082;43.568;22.256;2023-03-01T01:01:25;5.53;;;1.55;;
57225;SDS011;43082;43.568;22.256;2023-03-01T01:03:57;2.85;;;1.13;;
57225;SDS011;43082;43.568;22.256;2023-03-01T01:06:26;3.75;;;1.45;;
57225;SDS011;43082;43.568;22.256;2023-03-01T01:08:53;3.05;;;1.27;;
57225;SDS011;43082;43.568;22.256;2023-03-01T01:11:19;3.13;;;1.30;;
57225;SDS011;43082;43.568;22.256;2023-03-01T01:13:46;3.25;;;1.40;;
57225;SDS011;43082;43.568;22.256;2023-03-01T01:16:12;3.47;;;1.20;;
57225;SDS011;43082;43.568;22.256;2023-03-01T01:18:42;5.53;;;1.48;;
57225;SDS011;43082;43.568;22.256;2023-03-01T01:21:09;3.47;;;1.20;;
57225;SDS011;43082;43.568;22.256;2023-03-01T01:23:36;4.00;;;1.35;;
57225;SDS011;43082;43.568;22.256;2023-03-01T01:26:06;3.25;;;1.48;;
57225;SDS011;43082;43.568;22.256;2023-03-01T01:28:33;3.53;;;1.50;;
57225;SDS011;43082;43.568;22.256;2023-03-01T01:30:59;2.85;;;1.30;;
57225;SDS011;43082;43.568;22.256;2023-03-01T01:33:24;3.28;;;1.20;;
57225;SDS011;43082;43.568;22.256;2023-03-01T01:35:50;3.88;;;1.58;;
57225;SDS011;43082;43.568;22.256;2023-03-01T01:38:15;3.78;;;1.52;;
57225;SDS011;43082;43.568;22.256;2023-03-01T01:40:44;4.72;;;1.52;;
57225;SDS011;43082;43.568;22.256;2023-03-01T01:43:44;3.42;;;1.30;;
57225;SDS011;43082;43.568;22.256;2023-03-01T01:46:16;3.50;;;1.50;;
57225;SDS011;43082;43.568;22.256;2023-03-01T01:48:55;3.95;;;1.20;;
57225;SDS011;43082;43.568;22.256;2023-03-01T01:51:24;3.60;;;1.30;;
57225;SDS011;43082;43.568;22.256;2023-03-01T01:53:53;4.55;;;1.35;;
57225;SDS011;43082;43.568;22.256;2023-03-01T01:56:21;3.33;;;1.42;;
57225;SDS011;43082;43.568;22.256;2023-03-01T01:58:48;3.80;;;1.60;;
57225;SDS011;43082;43.568;22.256;2023-03-01T02:01:13;3.97;;;1.60;;
57225;SDS011;43082;43.568;22.256;2023-03-01T02:03:39;4.10;;;1.85;;
57225;SDS011;43082;43.568;22.256;2023-03-01T02:06:41;3.90;;;1.50;;
57225;SDS011;43082;43.568;22.256;2023-03-01T02:09:04;3.60;;;1.52;;
57225;SDS011;43082;43.568;22.256;2023-03-01T02:11:33;4.50;;;1.90;;
57225;SDS011;43082;43.568;22.256;2023-03-01T02:13:59;5.43;;;2.40;;
57225;SDS011;43082;43.568;22.256;2023-03-01T02:16:25;5.22;;;2.10;;
57225;SDS011;43082;43.568;22.256;2023-03-01T02:18:50;4.57;;;1.92;;
57225;SDS011;43082;43.568;22.256;2023-03-01T02:23:54;4.80;;;2.03;;
57225;SDS011;43082;43.568;22.256;2023-03-01T02:26:36;5.00;;;2.28;;
57225;SDS011;43082;43.568;22.256;2023-03-01T02:29:10;6.25;;;2.55;;
57225;SDS011;43082;43.568;22.256;2023-03-01T02:31:36;5.13;;;2.38;;
57225;SDS011;43082;43.568;22.256;2023-03-01T02:34:17;5.30;;;2.72;;
57225;SDS011;43082;43.568;22.256;2023-03-01T02:36:46;5.60;;;2.58;;
57225;SDS011;43082;43.568;22.256;2023-03-01T02:39:36;5.65;;;2.95;;
57225;SDS011;43082;43.568;22.256;2023-03-01T02:42:07;5.97;;;3.28;;
57225;SDS011;43082;43.568;22.256;2023-03-01T02:44:36;5.63;;;2.88;;
57225;SDS011;43082;43.568;22.256;2023-03-01T02:47:02;5.50;;;3.13;;
57225;SDS011;43082;43.568;22.256;2023-03-01T02:49:29;5.40;;;2.80;;
57225;SDS011;43082;43.568;22.256;2023-03-01T02:52:01;5.45;;;2.60;;
57225;SDS011;43082;43.568;22.256;2023-03-01T02:57:18;6.30;;;2.50;;
57225;SDS011;43082;43.568;22.256;2023-03-01T02:59:44;5.80;;;2.97;;
57225;SDS011;43082;43.568;22.256;2023-03-01T03:02:18;6.25;;;3.30;;
57225;SDS011;43082;43.568;22.256;2023-03-01T03:07:34;5.07;;;2.35;;
57225;SDS011;43082;43.568;22.256;2023-03-01T03:10:00;4.68;;;2.20;;
57225;SDS011;43082;43.568;22.256;2023-03-01T03:12:27;4.95;;;2.35;;
57225;SDS011;43082;43.568;22.256;2023-03-01T03:14:52;4.75;;;2.38;;
57225;SDS011;43082;43.568;22.256;2023-03-01T03:17:18;5.10;;;2.40;;
57225;SDS011;43082;43.568;22.256;2023-03-01T03:19:43;4.40;;;1.92;;
57225;SDS011;43082;43.568;22.256;2023-03-01T03:22:10;4.50;;;2.20;;
57225;SDS011;43082;43.568;22.256;2023-03-01T03:24:36;4.40;;;1.92;;
57225;SDS011;43082;43.568;22.256;2023-03-01T03:27:06;4.75;;;1.88;;
57225;SDS011;43082;43.568;22.256;2023-03-01T03:29:31;4.47;;;2.00;;
57225;SDS011;43082;43.568;22.256;2023-03-01T03:31:57;4.60;;;2.22;;
57225;SDS011;43082;43.568;22.256;2023-03-01T03:34:23;4.53;;;1.90;;
57225;SDS011;43082;43.568;22.256;2023-03-01T03:36:52;4.88;;;2.13;;
57225;SDS011;43082;43.568;22.256;2023-03-01T03:39:21;4.72;;;2.28;;
57225;SDS011;43082;43.568;22.256;2023-03-01T03:41:50;4.60;;;1.95;;
57225;SDS011;43082;43.568;22.256;2023-03-01T03:44:15;4.22;;;1.90;;
57225;SDS011;43082;43.568;22.256;2023-03-01T03:46:41;4.57;;;2.03;;
57225;SDS011;43082;43.568;22.256;2023-03-01T03:49:06;4.40;;;1.80;;
57225;SDS011;43082;43.568;22.256;2023-03-01T03:51:31;5.50;;;2.20;;
57225;SDS011;43082;43.568;22.256;2023-03-01T03:53:57;4.70;;;2.05;;
57225;SDS011;43082;43.568;22.256;2023-03-01T03:56:22;5.18;;;2.78;;
57225;SDS011;43082;43.568;22.256;2023-03-01T03:58:50;4.00;;;1.63;;
57225;SDS011;43082;43.568;22.256;2023-03-01T04:01:16;4.72;;;2.33;;
57225;SDS011;43082;43.568;22.256;2023-03-01T04:03:42;6.75;;;2.30;;
57225;SDS011;43082;43.568;22.256;2023-03-01T04:06:11;5.28;;;2.05;;
57225;SDS011;43082;43.568;22.256;2023-03-01T04:08:36;4.65;;;1.90;;
57225;SDS011;43082;43.568;22.256;2023-03-01T04:11:03;5.22;;;2.30;;
57225;SDS011;43082;43.568;22.256;2023-03-01T04:13:47;4.15;;;1.85;;
57225;SDS011;43082;43.568;22.256;2023-03-01T04:16:13;4.45;;;2.15;;
57225;SDS011;43082;43.568;22.256;2023-03-01T04:18:38;5.13;;;2.28;;
57225;SDS011;43082;43.568;22.256;2023-03-01T04:21:04;8.15;;;4.47;;
57225;SDS011;43082;43.568;22.256;2023-03-01T04:23:29;16.38;;;11.02;;
57225;SDS011;43082;43.568;22.256;2023-03-01T04:25:55;18.50;;;11.32;;
57225;SDS011;43082;43.568;22.256;2023-03-01T04:28:27;8.75;;;5.53;;
57225;SDS011;43082;43.568;22.256;2023-03-01T04:31:02;5.22;;;2.65;;
57225;SDS011;43082;43.568;22.256;2023-03-01T04:33:41;5.40;;;2.70;;
57225;SDS011;43082;43.568;22.256;2023-03-01T04:36:11;4.85;;;2.40;;
57225;SDS011;43082;43.568;22.256;2023-03-01T04:38:38;4.45;;;2.08;;
57225;SDS011;43082;43.568;22.256;2023-03-01T04:41:04;5.22;;;2.10;;
57225;SDS011;43082;43.568;22.256;2023-03-01T04:43:34;5.13;;;2.03;;
57225;SDS011;43082;43.568;22.256;2023-03-01T04:46:04;5.03;;;2.35;;
57225;SDS011;43082;43.568;22.256;2023-03-01T04:48:37;4.57;;;1.90;;
57225;SDS011;43082;43.568;22.256;2023-03-01T04:51:04;4.05;;;1.83;;
57225;SDS011;43082;43.568;22.256;2023-03-01T04:53:30;3.80;;;1.55;;
57225;SDS011;43082;43.568;22.256;2023-03-01T04:55:57;4.05;;;1.70;;
57225;SDS011;43082;43.568;22.256;2023-03-01T04:58:23;4.32;;;1.77;;
57225;SDS011;43082;43.568;22.256;2023-03-01T05:00:49;4.07;;;1.60;;
57225;SDS011;43082;43.568;22.256;2023-03-01T05:03:14;4.03;;;1.70;;
57225;SDS011;43082;43.568;22.256;2023-03-01T05:05:43;4.25;;;1.80;;
57225;SDS011;43082;43.568;22.256;2023-03-01T05:08:09;3.28;;;1.50;;
57225;SDS011;43082;43.568;22.256;2023-03-01T05:10:42;4.10;;;1.60;;
57225;SDS011;43082;43.568;22.256;2023-03-01T05:13:08;4.32;;;1.70;;
57225;SDS011;43082;43.568;22.256;2023-03-01T05:15:34;4.03;;;1.65;;
57225;SDS011;43082;43.568;22.256;2023-03-01T05:18:01;4.07;;;1.88;;
57225;SDS011;43082;43.568;22.256;2023-03-01T05:20:27;5.47;;;2.65;;
57225;SDS011;43082;43.568;22.256;2023-03-01T05:22:54;4.80;;;1.88;;
57225;SDS011;43082;43.568;22.256;2023-03-01T05:25:21;4.97;;;2.15;;
57225;SDS011;43082;43.568;22.256;2023-03-01T05:27:47;5.53;;;2.60;;
57225;SDS011;43082;43.568;22.256;2023-03-01T05:30:13;4.53;;;2.03;;
57225;SDS011;43082;43.568;22.256;2023-03-01T05:32:46;4.72;;;2.10;;
57225;SDS011;43082;43.568;22.256;2023-03-01T05:35:14;4.03;;;1.70;;
57225;SDS011;43082;43.568;22.256;2023-03-01T05:37:45;5.00;;;2.08;;
57225;SDS011;43082;43.568;22.256;2023-03-01T05:40:13;6.10;;;3.80;;
57225;SDS011;43082;43.568;22.256;2023-03-01T05:42:46;6.07;;;3.50;;
57225;SDS011;43082;43.568;22.256;2023-03-01T05:45:19;15.50;;;4.60;;
57225;SDS011;43082;43.568;22.256;2023-03-01T05:47:45;11.57;;;4.75;;
57225;SDS011;43082;43.568;22.256;2023-03-01T05:50:19;10.15;;;4.22;;
57225;SDS011;43082;43.568;22.256;2023-03-01T05:52:47;7.65;;;3.80;;
57225;SDS011;43082;43.568;22.256;2023-03-01T05:55:17;11.85;;;5.43;;
57225;SDS011;43082;43.568;22.256;2023-03-01T05:57:44;9.48;;;4.40;;
57225;SDS011;43082;43.568;22.256;2023-03-01T06:00:10;6.40;;;3.17;;
57225;SDS011;43082;43.568;22.256;2023-03-01T06:02:36;8.40;;;4.18;;
57225;SDS011;43082;43.568;22.256;2023-03-01T06:05:02;6.38;;;2.78;;
57225;SDS011;43082;43.568;22.256;2023-03-01T06:07:28;5.97;;;2.35;;
57225;SDS011;43082;43.568;22.256;2023-03-01T06:09:54;8.10;;;3.72;;
57225;SDS011;43082;43.568;22.256;2023-03-01T06:12:19;8.52;;;2.50;;
57225;SDS011;43082;43.568;22.256;2023-03-01T06:14:45;5.65;;;2.60;;
57225;SDS011;43082;43.568;22.256;2023-03-01T06:17:12;5.60;;;2.20;;
57225;SDS011;43082;43.568;22.256;2023-03-01T06:19:37;8.38;;;2.90;;
57225;SDS011;43082;43.568;22.256;2023-03-01T06:22:03;7.00;;;2.30;;
57225;SDS011;43082;43.568;22.256;2023-03-01T06:24:28;6.63;;;2.20;;
57225;SDS011;43082;43.568;22.256;2023-03-01T06:26:54;9.90;;;2.90;;
57225;SDS011;43082;43.568;22.256;2023-03-01T06:29:19;9.15;;;4.30;;
57225;SDS011;43082;43.568;22.256;2023-03-01T06:31:45;7.30;;;3.40;;
57225;SDS011;43082;43.568;22.256;2023-03-01T06:34:10;8.52;;;3.38;;
57225;SDS011;43082;43.568;22.256;2023-03-01T06:36:38;10.38;;;5.05;;
57225;SDS011;43082;43.568;22.256;2023-03-01T06:39:04;6.85;;;2.80;;
57225;SDS011;43082;43.568;22.256;2023-03-01T06:41:30;6.82;;;2.95;;
57225;SDS011;43082;43.568;22.256;2023-03-01T06:43:56;9.15;;;2.47;;
57225;SDS011;43082;43.568;22.256;2023-03-01T06:46:21;8.85;;;3.80;;
57225;SDS011;43082;43.568;22.256;2023-03-01T06:48:46;7.55;;;3.20;;
57225;SDS011;43082;43.568;22.256;2023-03-01T06:51:12;6.35;;;1.95;;
57225;SDS011;43082;43.568;22.256;2023-03-01T06:53:37;6.32;;;1.90;;
57225;SDS011;43082;43.568;22.256;2023-03-01T06:56:03;5.50;;;2.28;;
57225;SDS011;43082;43.568;22.256;2023-03-01T06:58:28;6.55;;;2.10;;
57225;SDS011;43082;43.568;22.256;2023-03-01T07:00:54;6.40;;;1.83;;
57225;SDS011;43082;43.568;22.256;2023-03-01T07:03:19;6.35;;;2.38;;
57225;SDS011;43082;43.568;22.256;2023-03-01T07:05:44;8.35;;;2.95;;
57225;SDS011;43082;43.568;22.256;2023-03-01T07:08:10;4.70;;;2.00;;
57225;SDS011;43082;43.568;22.256;2023-03-01T07:10:35;5.78;;;2.90;;
57225;SDS011;43082;43.568;22.256;2023-03-01T07:13:01;6.82;;;2.03;;
57225;SDS011;43082;43.568;22.256;2023-03-01T07:15:28;5.70;;;3.13;;
57225;SDS011;43082;43.568;22.256;2023-03-01T07:17:53;4.90;;;1.92;;
57225;SDS011;43082;43.568;22.256;2023-03-01T07:20:19;6.95;;;3.05;;
57225;SDS011;43082;43.568;22.256;2023-03-01T07:22:50;4.88;;;2.08;;
57225;SDS011;43082;43.568;22.256;2023-03-01T07:25:16;7.25;;;3.53;;
57225;SDS011;43082;43.568;22.256;2023-03-01T07:27:42;11.43;;;7.40;;
57225;SDS011;43082;43.568;22.256;2023-03-01T07:30:07;6.80;;;4.18;;
57225;SDS011;43082;43.568;22.256;2023-03-01T07:32:33;9.85;;;5.63;;
57225;SDS011;43082;43.568;22.256;2023-03-01T07:34:59;12.18;;;7.85;;
57225;SDS011;43082;43.568;22.256;2023-03-01T07:37:24;10.95;;;4.75;;
57225;SDS011;43082;43.568;22.256;2023-03-01T07:39:49;8.02;;;3.88;;
57225;SDS011;43082;43.568;22.256;2023-03-01T07:42:15;6.80;;;3.05;;
57225;SDS011;43082;43.568;22.256;2023-03-01T07:44:40;8.60;;;3.47;;
57225;SDS011;43082;43.568;22.256;2023-03-01T07:47:05;6.82;;;4.00;;
57225;SDS011;43082;43.568;22.256;2023-03-01T07:49:31;8.38;;;4.82;;
57225;SDS011;43082;43.568;22.256;2023-03-01T07:51:56;14.10;;;4.20;;
57225;SDS011;43082;43.568;22.256;2023-03-01T07:54:22;10.80;;;4.07;;
57225;SDS011;43082;43.568;22.256;2023-03-01T07:56:47;14.70;;;6.60;;
57225;SDS011;43082;43.568;22.256;2023-03-01T07:59:13;7.93;;;2.92;;
57225;SDS011;43082;43.568;22.256;2023-03-01T08:01:38;7.60;;;3.58;;
57225;SDS011;43082;43.568;22.256;2023-03-01T08:04:04;8.55;;;3.65;;
57225;SDS011;43082;43.568;22.256;2023-03-01T08:06:33;7.03;;;3.67;;
57225;SDS011;43082;43.568;22.256;2023-03-01T08:08:59;9.48;;;5.20;;
57225;SDS011;43082;43.568;22.256;2023-03-01T08:11:24;8.65;;;4.63;;
57225;SDS011;43082;43.568;22.256;2023-03-01T08:13:50;7.68;;;3.13;;
57225;SDS011;43082;43.568;22.256;2023-03-01T08:16:15;8.52;;;3.40;;
57225;SDS011;43082;43.568;22.256;2023-03-01T08:18:41;6.47;;;2.55;;
57225;SDS011;43082;43.568;22.256;2023-03-01T08:21:08;5.35;;;2.30;;
57225;SDS011;43082;43.568;22.256;2023-03-01T08:23:35;6.13;;;2.97;;
57225;SDS011;43082;43.568;22.256;2023-03-01T08:26:08;7.68;;;3.22;;
57225;SDS011;43082;43.568;22.256;2023-03-01T08:28:35;5.47;;;2.47;;
57225;SDS011;43082;43.568;22.256;2023-03-01T08:31:00;6.10;;;2.55;;
57225;SDS011;43082;43.568;22.256;2023-03-01T08:33:26;5.03;;;2.40;;
57225;SDS011;43082;43.568;22.256;2023-03-01T08:35:51;6.95;;;2.40;;
57225;SDS011;43082;43.568;22.256;2023-03-01T08:38:17;5.15;;;2.03;;
57225;SDS011;43082;43.568;22.256;2023-03-01T08:40:42;5.30;;;2.20;;
57225;SDS011;43082;43.568;22.256;2023-03-01T08:43:08;5.50;;;1.58;;
57225;SDS011;43082;43.568;22.256;2023-03-01T08:45:33;5.88;;;2.10;;
57225;SDS011;43082;43.568;22.256;2023-03-01T08:47:58;9.45;;;2.47;;
57225;SDS011;43082;43.568;22.256;2023-03-01T08:50:24;5.40;;;2.28;;
57225;SDS011;43082;43.568;22.256;2023-03-01T08:52:49;5.55;;;1.60;;
57225;SDS011;43082;43.568;22.256;2023-03-01T08:55:15;5.75;;;2.50;;
57225;SDS011;43082;43.568;22.256;2023-03-01T08:57:42;4.57;;;2.05;;
57225;SDS011;43082;43.568;22.256;2023-03-01T09:00:08;5.47;;;2.33;;
57225;SDS011;43082;43.568;22.256;2023-03-01T09:02:34;6.03;;;2.50;;
57225;SDS011;43082;43.568;22.256;2023-03-01T09:04:59;5.55;;;2.55;;
57225;SDS011;43082;43.568;22.256;2023-03-01T09:07:26;5.78;;;2.20;;
57225;SDS011;43082;43.568;22.256;2023-03-01T09:09:53;7.60;;;2.50;;
57225;SDS011;43082;43.568;22.256;2023-03-01T09:12:19;6.40;;;2.50;;
57225;SDS011;43082;43.568;22.256;2023-03-01T09:14:44;4.93;;;2.40;;
57225;SDS011;43082;43.568;22.256;2023-03-01T09:17:10;5.85;;;2.50;;
57225;SDS011;43082;43.568;22.256;2023-03-01T09:19:35;6.05;;;2.20;;
57225;SDS011;43082;43.568;22.256;2023-03-01T09:22:02;7.18;;;3.15;;
57225;SDS011;43082;43.568;22.256;2023-03-01T09:24:28;7.35;;;2.53;;
57225;SDS011;43082;43.568;22.256;2023-03-01T09:26:55;5.72;;;2.55;;
57225;SDS011;43082;43.568;22.256;2023-03-01T09:29:21;8.85;;;2.85;;
57225;SDS011;43082;43.568;22.256;2023-03-01T09:31:46;4.60;;;2.00;;
57225;SDS011;43082;43.568;22.256;2023-03-01T09:34:12;8.27;;;4.30;;
57225;SDS011;43082;43.568;22.256;2023-03-01T09:36:41;7.75;;;3.10;;
57225;SDS011;43082;43.568;22.256;2023-03-01T09:39:06;5.82;;;2.83;;
57225;SDS011;43082;43.568;22.256;2023-03-01T09:47:03;6.63;;;2.45;;
57225;SDS011;43082;43.568;22.256;2023-03-01T09:49:35;4.70;;;1.92;;
57225;SDS011;43082;43.568;22.256;2023-03-01T09:52:19;10.63;;;3.40;;
57225;SDS011;43082;43.568;22.256;2023-03-01T09:54:46;6.07;;;2.85;;
57225;SDS011;43082;43.568;22.256;2023-03-01T09:57:46;7.47;;;3.70;;
57225;SDS011;43082;43.568;22.256;2023-03-01T10:00:16;6.40;;;2.85;;
57225;SDS011;43082;43.568;22.256;2023-03-01T10:05:21;6.03;;;3.53;;
57225;SDS011;43082;43.568;22.256;2023-03-01T10:10:28;8.15;;;5.30;;
57225;SDS011;43082;43.568;22.256;2023-03-01T10:12:57;9.75;;;5.35;;
57225;SDS011;43082;43.568;22.256;2023-03-01T10:15:37;8.07;;;3.90;;
57225;SDS011;43082;43.568;22.256;2023-03-01T10:18:06;8.15;;;3.60;;
57225;SDS011;43082;43.568;22.256;2023-03-01T10:23:42;7.60;;;4.22;;
57225;SDS011;43082;43.568;22.256;2023-03-01T10:29:05;10.05;;;5.28;;
57225;SDS011;43082;43.568;22.256;2023-03-01T10:34:12;9.50;;;5.05;;
57225;SDS011;43082;43.568;22.256;2023-03-01T10:39:17;7.28;;;3.13;;
57225;SDS011;43082;43.568;22.256;2023-03-01T10:42:27;7.38;;;3.13;;
57225;SDS011;43082;43.568;22.256;2023-03-01T10:44:45;8.68;;;3.60;;
57225;SDS011;43082;43.568;22.256;2023-03-01T10:47:16;7.35;;;4.22;;
57225;SDS011;43082;43.568;22.256;2023-03-01T10:49:52;6.43;;;3.63;;
57225;SDS011;43082;43.568;22.256;2023-03-01T10:52:30;9.18;;;3.63;;
57225;SDS011;43082;43.568;22.256;2023-03-01T10:55:01;5.68;;;3.10;;
57225;SDS011;43082;43.568;22.256;2023-03-01T10:57:46;6.93;;;3.45;;
57225;SDS011;43082;43.568;22.256;2023-03-01T11:00:17;6.07;;;3.65;;
57225;SDS011;43082;43.568;22.256;2023-03-01T11:02:48;6.65;;;2.45;;
57225;SDS011;43082;43.568;22.256;2023-03-01T11:05:18;8.02;;;4.18;;
57225;SDS011;43082;43.568;22.256;2023-03-01T11:07:50;9.68;;;6.68;;
57225;SDS011;43082;43.568;22.256;2023-03-01T11:10:28;11.52;;;6.25;;
57225;SDS011;43082;43.568;22.256;2023-03-01T11:13:08;6.85;;;3.75;;
57225;SDS011;43082;43.568;22.256;2023-03-01T11:15:40;9.07;;;3.65;;
57225;SDS011;43082;43.568;22.256;2023-03-01T11:18:05;7.05;;;3.50;;
57225;SDS011;43082;43.568;22.256;2023-03-01T11:20:44;7.30;;;3.90;;
57225;SDS011;43082;43.568;22.256;2023-03-01T11:23:13;6.35;;;3.00;;
57225;SDS011;43082;43.568;22.256;2023-03-01T11:25:41;7.55;;;3.45;;
57225;SDS011;43082;43.568;22.256;2023-03-01T11:28:07;7.60;;;3.70;;
57225;SDS011;43082;43.568;22.256;2023-03-01T11:31:00;7.22;;;4.45;;
57225;SDS011;43082;43.568;22.256;2023-03-01T11:38:30;5.95;;;2.97;;
57225;SDS011;43082;43.568;22.256;2023-03-01T11:41:06;7.15;;;2.65;;
57225;SDS011;43082;43.568;22.256;2023-03-01T11:57:58;10.32;;;3.67;;
57225;SDS011;43082;43.568;22.256;2023-03-01T12:03:34;8.07;;;2.78;;
57225;SDS011;43082;43.568;22.256;2023-03-01T12:12:08;7.43;;;3.33;;
57225;SDS011;43082;43.568;22.256;2023-03-01T12:28:55;8.50;;;3.67;;
57225;SDS011;43082;43.568;22.256;2023-03-01T12:47:46;7.53;;;4.00;;
57225;SDS011;43082;43.568;22.256;2023-03-01T12:53:02;7.25;;;3.30;;
57225;SDS011;43082;43.568;22.256;2023-03-01T12:55:33;6.35;;;3.55;;
57225;SDS011;43082;43.568;22.256;2023-03-01T13:08:49;5.55;;;2.53;;
57225;SDS011;43082;43.568;22.256;2023-03-01T13:11:33;8.00;;;3.03;;
57225;SDS011;43082;43.568;22.256;2023-03-01T13:16:48;7.68;;;4.20;;
57225;SDS011;43082;43.568;22.256;2023-03-01T13:19:18;6.25;;;3.00;;
57225;SDS011;43082;43.568;22.256;2023-03-01T13:21:45;15.43;;;4.13;;
57225;SDS011;43082;43.568;22.256;2023-03-01T13:24:28;10.88;;;3.47;;
57225;SDS011;43082;43.568;22.256;2023-03-01T13:34:46;7.85;;;3.88;;
57225;SDS011;43082;43.568;22.256;2023-03-01T13:37:19;7.43;;;3.22;;
57225;SDS011;43082;43.568;22.256;2023-03-01T13:39:46;7.03;;;2.60;;
57225;SDS011;43082;43.568;22.256;2023-03-01T13:44:58;6.53;;;3.30;;
57225;SDS011;43082;43.568;22.256;2023-03-01T13:47:24;6.40;;;3.25;;
57225;SDS011;43082;43.568;22.256;2023-03-01T13:50:03;6.05;;;3.40;;
57225;SDS011;43082;43.568;22.256;2023-03-01T13:58:43;5.45;;;2.60;;
57225;SDS011;43082;43.568;22.256;2023-03-01T14:01:23;8.48;;;3.20;;
57225;SDS011;43082;43.568;22.256;2023-03-01T14:03:55;7.60;;;2.72;;
57225;SDS011;43082;43.568;22.256;2023-03-01T14:06:23;7.97;;;3.88;;
57225;SDS011;43082;43.568;22.256;2023-03-01T14:11:50;7.60;;;3.88;;
57225;SDS011;43082;43.568;22.256;2023-03-01T14:19:58;6.80;;;4.00;;
57225;SDS011;43082;43.568;22.256;2023-03-01T14:22:27;10.48;;;4.72;;
57225;SDS011;43082;43.568;22.256;2023-03-01T14:24:58;7.85;;;4.70;;
57225;SDS011;43082;43.568;22.256;2023-03-01T14:27:50;7.72;;;4.75;;
57225;SDS011;43082;43.568;22.256;2023-03-01T14:30:13;7.10;;;3.97;;
57225;SDS011;43082;43.568;22.256;2023-03-01T14:32:42;7.95;;;4.65;;
57225;SDS011;43082;43.568;22.256;2023-03-01T14:35:21;8.40;;;4.38;;
57225;SDS011;43082;43.568;22.256;2023-03-01T14:37:48;6.75;;;3.70;;
57225;SDS011;43082;43.568;22.256;2023-03-01T14:40:22;10.30;;;3.95;;
57225;SDS011;43082;43.568;22.256;2023-03-01T14:45:15;7.45;;;4.05;;
57225;SDS011;43082;43.568;22.256;2023-03-01T14:47:40;7.68;;;2.63;;
57225;SDS011;43082;43.568;22.256;2023-03-01T14:50:15;7.82;;;3.97;;
57225;SDS011;43082;43.568;22.256;2023-03-01T14:52:42;7.10;;;3.92;;
57225;SDS011;43082;43.568;22.256;2023-03-01T14:55:15;7.55;;;3.80;;
57225;SDS011;43082;43.568;22.256;2023-03-01T14:57:43;11.10;;;6.22;;
57225;SDS011;43082;43.568;22.256;2023-03-01T15:00:10;6.85;;;4.18;;
57225;SDS011;43082;43.568;22.256;2023-03-01T15:02:43;8.25;;;4.93;;
57225;SDS011;43082;43.568;22.256;2023-03-01T15:05:13;11.32;;;6.13;;
57225;SDS011;43082;43.568;22.256;2023-03-01T15:07:39;7.93;;;4.40;;
57225;SDS011;43082;43.568;22.256;2023-03-01T15:10:12;9.10;;;5.50;;
57225;SDS011;43082;43.568;22.256;2023-03-01T15:12:42;6.88;;;4.20;;
57225;SDS011;43082;43.568;22.256;2023-03-01T15:18:27;7.22;;;3.83;;
57225;SDS011;43082;43.568;22.256;2023-03-01T15:20:53;6.80;;;3.45;;
57225;SDS011;43082;43.568;22.256;2023-03-01T15:25:52;6.22;;;4.00;;
57225;SDS011;43082;43.568;22.256;2023-03-01T15:28:22;6.28;;;3.72;;
57225;SDS011;43082;43.568;22.256;2023-03-01T15:30:54;7.63;;;3.70;;
57225;SDS011;43082;43.568;22.256;2023-03-01T15:35:50;8.60;;;4.90;;
57225;SDS011;43082;43.568;22.256;2023-03-01T15:41:19;8.23;;;5.13;;
57225;SDS011;43082;43.568;22.256;2023-03-01T15:43:48;6.57;;;4.00;;
57225;SDS011;43082;43.568;22.256;2023-03-01T15:48:53;7.97;;;3.30;;
57225;SDS011;43082;43.568;22.256;2023-03-01T15:51:27;6.97;;;3.58;;
57225;SDS011;43082;43.568;22.256;2023-03-01T15:53:54;6.68;;;3.55;;
57225;SDS011;43082;43.568;22.256;2023-03-01T15:56:20;6.53;;;3.42;;
57225;SDS011;43082;43.568;22.256;2023-03-01T15:58:46;6.90;;;3.80;;
57225;SDS011;43082;43.568;22.256;2023-03-01T16:01:15;10.90;;;4.00;;
57225;SDS011;43082;43.568;22.256;2023-03-01T16:03:41;7.00;;;3.47;;
57225;SDS011;43082;43.568;22.256;2023-03-01T16:06:08;6.70;;;3.45;;
57225;SDS011;43082;43.568;22.256;2023-03-01T16:08:35;7.97;;;3.65;;
57225;SDS011;43082;43.568;22.256;2023-03-01T16:11:00;5.75;;;3.40;;
57225;SDS011;43082;43.568;22.256;2023-03-01T16:13:29;7.75;;;3.22;;
57225;SDS011;43082;43.568;22.256;2023-03-01T16:15:56;6.38;;;3.90;;
57225;SDS011;43082;43.568;22.256;2023-03-01T16:18:22;6.78;;;4.10;;
57225;SDS011;43082;43.568;22.256;2023-03-01T16:20:47;7.22;;;4.00;;
57225;SDS011;43082;43.568;22.256;2023-03-01T16:23:14;12.23;;;7.35;;
57225;SDS011;43082;43.568;22.256;2023-03-01T16:25:40;11.95;;;4.90;;
57225;SDS011;43082;43.568;22.256;2023-03-01T16:28:05;9.95;;;5.47;;
57225;SDS011;43082;43.568;22.256;2023-03-01T16:30:33;11.30;;;5.97;;
57225;SDS011;43082;43.568;22.256;2023-03-01T16:33:00;8.32;;;5.30;;
57225;SDS011;43082;43.568;22.256;2023-03-01T16:35:25;11.77;;;4.78;;
57225;SDS011;43082;43.568;22.256;2023-03-01T16:37:51;13.05;;;7.75;;
57225;SDS011;43082;43.568;22.256;2023-03-01T16:42:49;7.93;;;4.70;;
57225;SDS011;43082;43.568;22.256;2023-03-01T16:45:16;9.82;;;4.25;;
57225;SDS011;43082;43.568;22.256;2023-03-01T16:47:43;10.15;;;5.30;;
57225;SDS011;43082;43.568;22.256;2023-03-01T16:50:08;7.70;;;4.43;;
57225;SDS011;43082;43.568;22.256;2023-03-01T16:52:34;7.78;;;3.85;;
57225;SDS011;43082;43.568;22.256;2023-03-01T16:54:59;8.63;;;3.20;;
57225;SDS011;43082;43.568;22.256;2023-03-01T16:57:25;18.13;;;4.22;;
57225;SDS011;43082;43.568;22.256;2023-03-01T16:59:51;8.18;;;3.53;;
57225;SDS011;43082;43.568;22.256;2023-03-01T17:02:18;8.38;;;3.80;;
57225;SDS011;43082;43.568;22.256;2023-03-01T17:04:44;9.98;;;4.40;;
57225;SDS011;43082;43.568;22.256;2023-03-01T17:07:10;8.13;;;3.75;;
57225;SDS011;43082;43.568;22.256;2023-03-01T17:09:36;25.63;;;4.47;;